sensor_id;sensor_type;location;lat;lon;timestamp;pressure;altitude;pressure_sealevel;temperature;humidity
21760;BME280;11041;50.854;20.580;2023-04-28T00:00:02;99231.16;;;-0.52;87.50
21760;BME280;11041;50.854;20.580;2023-04-28T00:02:50;99225.38;;;-0.56;87.35
21760;BME280;11041;50.854;20.580;2023-04-28T00:05:17;99221.25;;;-0.58;87.96
21760;BME280;11041;50.854;20.580;2023-04-28T00:07:43;99231.75;;;-0.50;88.02
21760;BME280;11041;50.854;20.580;2023-04-28T00:10:10;99212.72;;;-0.55;87.81
21760;BME280;11041;50.854;20.580;2023-04-28T00:12:37;99218.25;;;-0.50;87.48
21760;BME280;11041;50.854;20.580;2023-04-28T00:15:04;99243.81;;;-0.41;86.98
21760;BME280;11041;50.854;20.580;2023-04-28T00:17:31;99236.44;;;-0.46;86.80
21760;BME280;11041;50.854;20.580;2023-04-28T00:19:57;99243.59;;;-0.39;85.96
21760;BME280;11041;50.854;20.580;2023-04-28T00:22:24;99239.00;;;-0.51;86.43
21760;BME280;11041;50.854;20.580;2023-04-28T00:24:50;99232.44;;;-0.55;86.21
21760;BME280;11041;50.854;20.580;2023-04-28T00:27:17;99229.00;;;-0.62;87.14
21760;BME280;11041;50.854;20.580;2023-04-28T00:29:44;99237.44;;;-0.58;87.72
21760;BME280;11041;50.854;20.580;2023-04-28T00:32:11;99230.66;;;-0.61;87.48
21760;BME280;11041;50.854;20.580;2023-04-28T00:34:38;99231.63;;;-0.55;88.38
21760;BME280;11041;50.854;20.580;2023-04-28T00:37:05;99229.47;;;-0.53;87.97
21760;BME280;11041;50.854;20.580;2023-04-28T00:39:32;99226.44;;;-0.57;87.71
21760;BME280;11041;50.854;20.580;2023-04-28T00:41:58;99229.34;;;-0.58;87.83
21760;BME280;11041;50.854;20.580;2023-04-28T00:44:25;99235.59;;;-0.46;88.57
21760;BME280;11041;50.854;20.580;2023-04-28T00:46:52;99229.28;;;-0.40;88.91
21760;BME280;11041;50.854;20.580;2023-04-28T00:49:19;99225.78;;;-0.29;88.50
21760;BME280;11041;50.854;20.580;2023-04-28T00:51:46;99218.84;;;-0.25;88.89
21760;BME280;11041;50.854;20.580;2023-04-28T00:54:15;99218.97;;;-0.19;88.19
21760;BME280;11041;50.854;20.580;2023-04-28T00:56:42;99220.16;;;-0.15;88.14
21760;BME280;11041;50.854;20.580;2023-04-28T00:59:09;99227.06;;;-0.19;87.89
21760;BME280;11041;50.854;20.580;2023-04-28T01:01:36;99230.63;;;-0.19;87.98
21760;BME280;11041;50.854;20.580;2023-04-28T01:04:02;99223.94;;;-0.16;88.49
21760;BME280;11041;50.854;20.580;2023-04-28T01:06:30;99215.81;;;-0.16;88.08
21760;BME280;11041;50.854;20.580;2023-04-28T01:08:57;99216.63;;;-0.16;87.84
21760;BME280;11041;50.854;20.580;2023-04-28T01:11:23;99213.84;;;-0.09;88.30
21760;BME280;11041;50.854;20.580;2023-04-28T01:13:50;99214.19;;;-0.06;87.32
21760;BME280;11041;50.854;20.580;2023-04-28T01:16:18;99218.53;;;-0.16;87.42
21760;BME280;11041;50.854;20.580;2023-04-28T01:18:47;99224.25;;;-0.25;87.94
21760;BME280;11041;50.854;20.580;2023-04-28T01:21:13;99224.03;;;-0.23;87.67
21760;BME280;11041;50.854;20.580;2023-04-28T01:23:40;99243.78;;;-0.11;88.09
21760;BME280;11041;50.854;20.580;2023-04-28T01:26:07;99233.44;;;-0.14;87.97
21760;BME280;11041;50.854;20.580;2023-04-28T01:28:33;99241.78;;;-0.15;87.86
21760;BME280;11041;50.854;20.580;2023-04-28T01:30:59;99237.88;;;-0.19;87.88
21760;BME280;11041;50.854;20.580;2023-04-28T01:33:26;99222.16;;;-0.23;88.23
21760;BME280;11041;50.854;20.580;2023-04-28T01:35:57;99215.72;;;-0.22;88.84
21760;BME280;11041;50.854;20.580;2023-04-28T01:38:24;99218.53;;;-0.16;88.69
21760;BME280;11041;50.854;20.580;2023-04-28T01:40:50;99216.41;;;-0.14;88.67
21760;BME280;11041;50.854;20.580;2023-04-28T01:43:17;99222.97;;;-0.10;88.69
21760;BME280;11041;50.854;20.580;2023-04-28T01:45:43;99235.19;;;-0.08;88.17
21760;BME280;11041;50.854;20.580;2023-04-28T01:48:10;99233.91;;;-0.29;88.43
21760;BME280;11041;50.854;20.580;2023-04-28T01:50:36;99238.00;;;-0.38;88.88
21760;BME280;11041;50.854;20.580;2023-04-28T01:53:03;99229.63;;;-0.36;89.39
21760;BME280;11041;50.854;20.580;2023-04-28T01:55:29;99222.03;;;-0.28;89.81
21760;BME280;11041;50.854;20.580;2023-04-28T01:57:56;99222.16;;;-0.23;89.84
21760;BME280;11041;50.854;20.580;2023-04-28T02:00:23;99226.50;;;-0.10;90.27
21760;BME280;11041;50.854;20.580;2023-04-28T02:02:50;99223.34;;;-0.07;90.09
21760;BME280;11041;50.854;20.580;2023-04-28T02:05:16;99234.97;;;-0.06;89.98
21760;BME280;11041;50.854;20.580;2023-04-28T02:07:43;99243.19;;;-0.01;89.31
21760;BME280;11041;50.854;20.580;2023-04-28T02:10:10;99234.88;;;0.01;89.01
21760;BME280;11041;50.854;20.580;2023-04-28T02:12:36;99228.97;;;0.04;89.27
21760;BME280;11041;50.854;20.580;2023-04-28T02:15:03;99234.97;;;0.06;88.74
21760;BME280;11041;50.854;20.580;2023-04-28T02:17:30;99233.69;;;0.08;88.64
21760;BME280;11041;50.854;20.580;2023-04-28T02:19:57;99227.47;;;0.08;88.25
21760;BME280;11041;50.854;20.580;2023-04-28T02:22:24;99249.41;;;0.11;87.95
21760;BME280;11041;50.854;20.580;2023-04-28T02:24:50;99235.91;;;-0.01;87.49
21760;BME280;11041;50.854;20.580;2023-04-28T02:27:17;99234.59;;;-0.10;87.76
21760;BME280;11041;50.854;20.580;2023-04-28T02:29:43;99242.13;;;-0.12;88.38
21760;BME280;11041;50.854;20.580;2023-04-28T02:32:10;99232.63;;;-0.14;88.83
21760;BME280;11041;50.854;20.580;2023-04-28T02:34:36;99250.69;;;-0.03;88.30
21760;BME280;11041;50.854;20.580;2023-04-28T02:37:03;99235.19;;;-0.08;88.03
21760;BME280;11041;50.854;20.580;2023-04-28T02:39:29;99239.56;;;-0.07;88.29
21760;BME280;11041;50.854;20.580;2023-04-28T02:41:58;99229.44;;;-0.11;88.40
21760;BME280;11041;50.854;20.580;2023-04-28T02:44:24;99234.72;;;-0.16;88.77
21760;BME280;11041;50.854;20.580;2023-04-28T02:46:51;99246.84;;;-0.07;88.59
21760;BME280;11041;50.854;20.580;2023-04-28T02:49:17;99245.66;;;-0.11;88.43
21760;BME280;11041;50.854;20.580;2023-04-28T02:51:44;99237.66;;;-0.18;88.74
21760;BME280;11041;50.854;20.580;2023-04-28T02:54:11;99231.06;;;-0.22;88.71
21760;BME280;11041;50.854;20.580;2023-04-28T02:56:38;99246.22;;;-0.33;88.77
21760;BME280;11041;50.854;20.580;2023-04-28T02:59:06;99256.41;;;-0.35;89.14
21760;BME280;11041;50.854;20.580;2023-04-28T03:01:33;99257.47;;;-0.36;89.61
21760;BME280;11041;50.854;20.580;2023-04-28T03:03:59;99239.59;;;-0.49;89.86
21760;BME280;11041;50.854;20.580;2023-04-28T03:06:26;99247.59;;;-0.42;89.66
21760;BME280;11041;50.854;20.580;2023-04-28T03:08:53;99241.38;;;-0.43;89.79
21760;BME280;11041;50.854;20.580;2023-04-28T03:11:20;99246.09;;;-0.38;90.32
21760;BME280;11041;50.854;20.580;2023-04-28T03:13:46;99249.25;;;-0.29;89.74
21760;BME280;11041;50.854;20.580;2023-04-28T03:16:13;99259.84;;;-0.28;89.67
21760;BME280;11041;50.854;20.580;2023-04-28T03:18:39;99249.94;;;-0.34;89.03
21760;BME280;11041;50.854;20.580;2023-04-28T03:21:06;99256.75;;;-0.43;89.12
21760;BME280;11041;50.854;20.580;2023-04-28T03:23:32;99257.19;;;-0.46;89.38
21760;BME280;11041;50.854;20.580;2023-04-28T03:25:59;99256.75;;;-0.43;89.68
21760;BME280;11041;50.854;20.580;2023-04-28T03:28:26;99267.91;;;-0.39;90.11
21760;BME280;11041;50.854;20.580;2023-04-28T03:30:52;99241.00;;;-0.46;90.03
21760;BME280;11041;50.854;20.580;2023-04-28T03:33:18;99239.03;;;-0.39;89.74
21760;BME280;11041;50.854;20.580;2023-04-28T03:35:45;99242.69;;;-0.33;90.12
21760;BME280;11041;50.854;20.580;2023-04-28T03:38:12;99234.47;;;-0.38;89.13
21760;BME280;11041;50.854;20.580;2023-04-28T03:40:38;99244.19;;;-0.37;89.70
21760;BME280;11041;50.854;20.580;2023-04-28T03:43:05;99236.91;;;-0.37;89.71
21760;BME280;11041;50.854;20.580;2023-04-28T03:45:32;99238.34;;;-0.34;88.88
21760;BME280;11041;50.854;20.580;2023-04-28T03:47:58;99236.22;;;-0.32;89.05
21760;BME280;11041;50.854;20.580;2023-04-28T03:50:25;99239.88;;;-0.27;88.73
21760;BME280;11041;50.854;20.580;2023-04-28T03:52:51;99238.56;;;-0.24;88.72
21760;BME280;11041;50.854;20.580;2023-04-28T03:55:18;99249.50;;;-0.31;88.29
21760;BME280;11041;50.854;20.580;2023-04-28T03:57:44;99253.63;;;-0.28;88.52
21760;BME280;11041;50.854;20.580;2023-04-28T04:00:13;99253.03;;;-0.30;88.70
21760;BME280;11041;50.854;20.580;2023-04-28T04:02:39;99242.31;;;-0.37;88.27
21760;BME280;11041;50.854;20.580;2023-04-28T04:05:06;99245.84;;;-0.36;88.57
21760;BME280;11041;50.854;20.580;2023-04-28T04:07:32;99246.19;;;-0.45;89.05
21760;BME280;11041;50.854;20.580;2023-04-28T04:09:59;99246.53;;;-0.41;89.44
21760;BME280;11041;50.854;20.580;2023-04-28T04:12:25;99271.09;;;-0.31;89.88
21760;BME280;11041;50.854;20.580;2023-04-28T04:14:52;99249.72;;;-0.32;89.60
21760;BME280;11041;50.854;20.580;2023-04-28T04:17:18;99252.09;;;-0.36;89.89
21760;BME280;11041;50.854;20.580;2023-04-28T04:19:45;99247.72;;;-0.37;90.30
21760;BME280;11041;50.854;20.580;2023-04-28T04:22:11;99265.94;;;-0.32;90.58
21760;BME280;11041;50.854;20.580;2023-04-28T04:24:38;99257.00;;;-0.33;91.21
21760;BME280;11041;50.854;20.580;2023-04-28T04:27:04;99254.09;;;-0.31;91.24
21760;BME280;11041;50.854;20.580;2023-04-28T04:29:31;99254.78;;;-0.24;91.50
21760;BME280;11041;50.854;20.580;2023-04-28T04:31:57;99271.97;;;-0.07;92.37
21760;BME280;11041;50.854;20.580;2023-04-28T04:34:24;99267.41;;;0.06;91.96
21760;BME280;11041;50.854;20.580;2023-04-28T04:36:50;99269.63;;;0.20;91.72
21760;BME280;11041;50.854;20.580;2023-04-28T04:39:17;99261.31;;;0.34;91.52
21760;BME280;11041;50.854;20.580;2023-04-28T04:41:43;99263.63;;;0.42;91.01
21760;BME280;11041;50.854;20.580;2023-04-28T04:44:10;99271.63;;;0.60;90.65
21760;BME280;11041;50.854;20.580;2023-04-28T04:46:37;99260.81;;;0.60;90.73
21760;BME280;11041;50.854;20.580;2023-04-28T04:49:03;99254.31;;;0.61;90.60
21760;BME280;11041;50.854;20.580;2023-04-28T04:51:30;99246.56;;;0.65;90.65
21760;BME280;11041;50.854;20.580;2023-04-28T04:53:56;99252.19;;;0.75;90.99
21760;BME280;11041;50.854;20.580;2023-04-28T04:56:23;99254.50;;;0.83;90.86
21760;BME280;11041;50.854;20.580;2023-04-28T04:58:51;99265.06;;;0.97;90.57
21760;BME280;11041;50.854;20.580;2023-04-28T05:01:17;99260.56;;;1.02;90.25
21760;BME280;11041;50.854;20.580;2023-04-28T05:03:44;99256.91;;;1.09;90.45
21760;BME280;11041;50.854;20.580;2023-04-28T05:06:10;99255.94;;;1.15;90.42
21760;BME280;11041;50.854;20.580;2023-04-28T05:08:37;99261.31;;;1.26;90.49
21760;BME280;11041;50.854;20.580;2023-04-28T05:11:03;99266.69;;;1.38;90.49
21760;BME280;11041;50.854;20.580;2023-04-28T05:13:30;99254.03;;;1.44;90.64
21760;BME280;11041;50.854;20.580;2023-04-28T05:15:56;99258.59;;;1.55;90.57
21760;BME280;11041;50.854;20.580;2023-04-28T05:18:23;99256.63;;;1.67;90.56
21760;BME280;11041;50.854;20.580;2023-04-28T05:20:49;99264.47;;;1.81;90.71
21760;BME280;11041;50.854;20.580;2023-04-28T05:23:16;99269.31;;;1.96;90.81
21760;BME280;11041;50.854;20.580;2023-04-28T05:25:43;99265.19;;;2.10;91.00
21760;BME280;11041;50.854;20.580;2023-04-28T05:28:10;99257.78;;;2.22;91.24
21760;BME280;11041;50.854;20.580;2023-04-28T05:30:36;99266.31;;;2.48;91.48
21760;BME280;11041;50.854;20.580;2023-04-28T05:33:03;99267.66;;;2.67;91.38
21760;BME280;11041;50.854;20.580;2023-04-28T05:35:29;99273.88;;;2.85;90.69
21760;BME280;11041;50.854;20.580;2023-04-28T05:37:57;99255.84;;;3.01;91.22
21760;BME280;11041;50.854;20.580;2023-04-28T05:40:24;99265.34;;;3.20;90.69
21760;BME280;11041;50.854;20.580;2023-04-28T05:42:51;99270.75;;;3.42;88.99
21760;BME280;11041;50.854;20.580;2023-04-28T05:45:18;99263.31;;;3.59;89.85
21760;BME280;11041;50.854;20.580;2023-04-28T05:47:44;99262.09;;;3.77;89.01
21760;BME280;11041;50.854;20.580;2023-04-28T05:50:11;99270.44;;;3.98;89.14
21760;BME280;11041;50.854;20.580;2023-04-28T05:52:38;99271.44;;;4.19;88.68
21760;BME280;11041;50.854;20.580;2023-04-28T05:55:05;99273.97;;;4.31;88.16
21760;BME280;11041;50.854;20.580;2023-04-28T05:57:32;99258.75;;;4.35;87.76
21760;BME280;11041;50.854;20.580;2023-04-28T06:00:00;99260.16;;;4.42;86.56
21760;BME280;11041;50.854;20.580;2023-04-28T06:02:26;99263.78;;;4.53;86.78
21760;BME280;11041;50.854;20.580;2023-04-28T06:04:53;99272.28;;;4.67;85.80
21760;BME280;11041;50.854;20.580;2023-04-28T06:07:19;99273.97;;;4.78;85.29
21760;BME280;11041;50.854;20.580;2023-04-28T06:09:46;99272.69;;;4.91;85.27
21760;BME280;11041;50.854;20.580;2023-04-28T06:12:13;99271.13;;;5.05;83.93
21760;BME280;11041;50.854;20.580;2023-04-28T06:14:39;99280.69;;;5.18;81.85
21760;BME280;11041;50.854;20.580;2023-04-28T06:17:06;99269.81;;;5.28;79.38
21760;BME280;11041;50.854;20.580;2023-04-28T06:19:33;99280.00;;;5.48;78.45
21760;BME280;11041;50.854;20.580;2023-04-28T06:22:00;99270.16;;;5.58;77.31
21760;BME280;11041;50.854;20.580;2023-04-28T06:24:26;99271.84;;;5.74;75.85
21760;BME280;11041;50.854;20.580;2023-04-28T06:26:54;99266.38;;;5.84;75.77
21760;BME280;11041;50.854;20.580;2023-04-28T06:29:21;99260.44;;;6.03;76.12
21760;BME280;11041;50.854;20.580;2023-04-28T06:31:49;99271.09;;;6.19;75.76
21760;BME280;11041;50.854;20.580;2023-04-28T06:34:17;99279.53;;;6.38;75.87
21760;BME280;11041;50.854;20.580;2023-04-28T06:36:44;99268.31;;;6.50;75.19
21760;BME280;11041;50.854;20.580;2023-04-28T06:39:10;99279.75;;;6.63;72.37
21760;BME280;11041;50.854;20.580;2023-04-28T06:41:38;99273.47;;;6.72;72.12
21760;BME280;11041;50.854;20.580;2023-04-28T06:44:05;99271.00;;;6.76;71.21
21760;BME280;11041;50.854;20.580;2023-04-28T06:46:31;99282.16;;;6.90;71.32
21760;BME280;11041;50.854;20.580;2023-04-28T06:48:58;99278.56;;;6.99;71.70
21760;BME280;11041;50.854;20.580;2023-04-28T06:51:24;99273.03;;;7.20;66.80
21760;BME280;11041;50.854;20.580;2023-04-28T06:53:51;99268.09;;;7.22;67.36
21760;BME280;11041;50.854;20.580;2023-04-28T06:56:18;99261.00;;;7.21;66.20
21760;BME280;11041;50.854;20.580;2023-04-28T06:58:45;99252.75;;;7.26;66.34
21760;BME280;11041;50.854;20.580;2023-04-28T07:01:12;99263.66;;;7.36;66.31
21760;BME280;11041;50.854;20.580;2023-04-28T07:03:39;99266.91;;;7.43;65.93
21760;BME280;11041;50.854;20.580;2023-04-28T07:06:06;99259.22;;;7.51;63.64
21760;BME280;11041;50.854;20.580;2023-04-28T07:08:34;99247.13;;;7.57;64.20
21760;BME280;11041;50.854;20.580;2023-04-28T07:11:02;99261.75;;;7.76;60.49
21760;BME280;11041;50.854;20.580;2023-04-28T07:13:29;99260.06;;;7.85;62.02
21760;BME280;11041;50.854;20.580;2023-04-28T07:15:56;99259.94;;;8.01;62.27
21760;BME280;11041;50.854;20.580;2023-04-28T07:18:23;99256.34;;;8.10;62.17
21760;BME280;11041;50.854;20.580;2023-04-28T07:20:50;99252.44;;;8.17;60.50
21760;BME280;11041;50.854;20.580;2023-04-28T07:23:17;99249.31;;;8.28;60.38
21760;BME280;11041;50.854;20.580;2023-04-28T07:25:44;99243.16;;;8.47;56.06
21760;BME280;11041;50.854;20.580;2023-04-28T07:28:11;99231.34;;;8.51;55.84
21760;BME280;11041;50.854;20.580;2023-04-28T07:30:39;99241.59;;;8.65;56.67
21760;BME280;11041;50.854;20.580;2023-04-28T07:33:05;99241.72;;;8.79;57.29
21760;BME280;11041;50.854;20.580;2023-04-28T07:35:32;99228.84;;;8.79;53.39
21760;BME280;11041;50.854;20.580;2023-04-28T07:37:59;99239.03;;;8.98;55.05
21760;BME280;11041;50.854;20.580;2023-04-28T07:40:26;99226.31;;;9.07;54.81
21760;BME280;11041;50.854;20.580;2023-04-28T07:42:52;99228.03;;;9.22;55.14
21760;BME280;11041;50.854;20.580;2023-04-28T07:45:19;99233.03;;;9.38;54.54
21760;BME280;11041;50.854;20.580;2023-04-28T07:47:46;99233.03;;;9.57;54.88
21760;BME280;11041;50.854;20.580;2023-04-28T07:50:13;99230.06;;;9.73;55.16
21760;BME280;11041;50.854;20.580;2023-04-28T07:52:39;99233.81;;;9.96;48.95
21760;BME280;11041;50.854;20.580;2023-04-28T07:55:06;99230.38;;;10.04;47.63
21760;BME280;11041;50.854;20.580;2023-04-28T07:57:33;99237.13;;;10.12;48.30
21760;BME280;11041;50.854;20.580;2023-04-28T08:00:01;99223.47;;;10.07;48.84
21760;BME280;11041;50.854;20.580;2023-04-28T08:02:28;99219.31;;;10.09;48.97
21760;BME280;11041;50.854;20.580;2023-04-28T08:04:55;99229.31;;;10.19;49.22
21760;BME280;11041;50.854;20.580;2023-04-28T08:07:21;99227.72;;;10.32;47.27
21760;BME280;11041;50.854;20.580;2023-04-28T08:09:48;99223.59;;;10.34;46.78
21760;BME280;11041;50.854;20.580;2023-04-28T08:12:15;99224.84;;;10.23;47.78
21760;BME280;11041;50.854;20.580;2023-04-28T08:14:42;99212.19;;;10.08;49.18
21760;BME280;11041;50.854;20.580;2023-04-28T08:17:08;99211.69;;;10.06;49.30
21760;BME280;11041;50.854;20.580;2023-04-28T08:19:35;99205.44;;;10.00;48.41
21760;BME280;11041;50.854;20.580;2023-04-28T08:22:01;99210.44;;;9.98;49.40
21760;BME280;11041;50.854;20.580;2023-04-28T08:24:32;99190.94;;;10.14;47.30
21760;BME280;11041;50.854;20.580;2023-04-28T08:27:02;99208.88;;;10.25;48.48
21760;BME280;11041;50.854;20.580;2023-04-28T08:29:30;99194.56;;;10.28;47.31
21760;BME280;11041;50.854;20.580;2023-04-28T08:31:58;99197.84;;;10.30;49.39
21760;BME280;11041;50.854;20.580;2023-04-28T08:34:27;99185.56;;;10.41;45.70
21760;BME280;11041;50.854;20.580;2023-04-28T08:36:53;99188.50;;;10.45;45.09
21760;BME280;11041;50.854;20.580;2023-04-28T08:39:20;99177.72;;;10.49;45.82
21760;BME280;11041;50.854;20.580;2023-04-28T08:41:48;99187.69;;;10.44;46.43
21760;BME280;11041;50.854;20.580;2023-04-28T08:44:15;99187.88;;;10.48;46.93
21760;BME280;11041;50.854;20.580;2023-04-28T08:46:43;99180.53;;;10.43;43.82
21760;BME280;11041;50.854;20.580;2023-04-28T08:49:17;99189.22;;;10.37;43.86
21760;BME280;11041;50.854;20.580;2023-04-28T08:51:49;99173.34;;;10.15;45.49
21760;BME280;11041;50.854;20.580;2023-04-28T08:54:19;99184.56;;;10.18;47.82
21760;BME280;11041;50.854;20.580;2023-04-28T08:56:46;99166.03;;;10.24;47.26
21760;BME280;11041;50.854;20.580;2023-04-28T08:59:14;99176.09;;;10.61;44.24
21760;BME280;11041;50.854;20.580;2023-04-28T09:01:41;99166.03;;;10.71;44.15
21760;BME280;11041;50.854;20.580;2023-04-28T09:04:08;99172.03;;;10.73;45.14
21760;BME280;11041;50.854;20.580;2023-04-28T09:06:37;99181.56;;;10.89;44.39
21760;BME280;11041;50.854;20.580;2023-04-28T09:09:29;99167.63;;;10.85;43.29
21760;BME280;11041;50.854;20.580;2023-04-28T09:11:59;99162.44;;;10.84;42.23
21760;BME280;11041;50.854;20.580;2023-04-28T09:14:29;99166.41;;;10.92;41.57
21760;BME280;11041;50.854;20.580;2023-04-28T09:16:56;99168.66;;;10.90;43.16
21760;BME280;11041;50.854;20.580;2023-04-28T09:19:23;99157.03;;;10.93;43.26
21760;BME280;11041;50.854;20.580;2023-04-28T09:21:58;99157.31;;;11.05;47.08
21760;BME280;11041;50.854;20.580;2023-04-28T09:24:34;99150.56;;;11.25;45.19
21760;BME280;11041;50.854;20.580;2023-04-28T09:27:06;99163.31;;;11.57;42.84
21760;BME280;11041;50.854;20.580;2023-04-28T09:29:51;99152.41;;;11.75;42.31
21760;BME280;11041;50.854;20.580;2023-04-28T09:32:23;99160.53;;;11.80;43.28
21760;BME280;11041;50.854;20.580;2023-04-28T09:34:53;99157.38;;;11.86;42.87
21760;BME280;11041;50.854;20.580;2023-04-28T09:37:25;99156.44;;;11.91;40.10
21760;BME280;11041;50.854;20.580;2023-04-28T09:39:53;99150.69;;;12.01;39.89
21760;BME280;11041;50.854;20.580;2023-04-28T09:42:41;99151.44;;;11.93;39.30
21760;BME280;11041;50.854;20.580;2023-04-28T09:45:13;99143.22;;;11.79;41.73
21760;BME280;11041;50.854;20.580;2023-04-28T09:47:46;99136.91;;;11.79;42.90
21760;BME280;11041;50.854;20.580;2023-04-28T09:50:15;99143.09;;;11.84;40.93
21760;BME280;11041;50.854;20.580;2023-04-28T09:52:45;99135.13;;;11.83;41.71
21760;BME280;11041;50.854;20.580;2023-04-28T09:55:14;99132.03;;;11.98;39.57
21760;BME280;11041;50.854;20.580;2023-04-28T09:57:43;99141.28;;;12.02;41.40
21760;BME280;11041;50.854;20.580;2023-04-28T10:00:12;99134.31;;;12.05;40.97
21760;BME280;11041;50.854;20.580;2023-04-28T10:02:41;99123.06;;;12.24;40.73
21760;BME280;11041;50.854;20.580;2023-04-28T10:05:09;99124.94;;;12.37;41.00
21760;BME280;11041;50.854;20.580;2023-04-28T10:07:36;99122.19;;;12.37;40.24
21760;BME280;11041;50.854;20.580;2023-04-28T10:10:04;99111.09;;;12.28;41.78
21760;BME280;11041;50.854;20.580;2023-04-28T10:12:32;99116.63;;;12.28;42.78
21760;BME280;11041;50.854;20.580;2023-04-28T10:15:01;99105.50;;;12.42;40.10
21760;BME280;11041;50.854;20.580;2023-04-28T10:17:28;99099.28;;;12.28;42.00
21760;BME280;11041;50.854;20.580;2023-04-28T10:19:55;99090.50;;;12.17;42.36
21760;BME280;11041;50.854;20.580;2023-04-28T10:25:52;99092.41;;;12.17;42.39
21760;BME280;11041;50.854;20.580;2023-04-28T10:28:22;99098.28;;;12.24;43.82
21760;BME280;11041;50.854;20.580;2023-04-28T10:31:14;99089.25;;;12.32;42.90
21760;BME280;11041;50.854;20.580;2023-04-28T10:33:41;99085.22;;;12.38;42.23
21760;BME280;11041;50.854;20.580;2023-04-28T10:36:09;99083.28;;;12.47;41.04
21760;BME280;11041;50.854;20.580;2023-04-28T10:39:14;99082.03;;;12.53;42.02
21760;BME280;11041;50.854;20.580;2023-04-28T10:41:46;99066.16;;;12.59;41.75
21760;BME280;11041;50.854;20.580;2023-04-28T10:47:05;99071.38;;;12.78;40.54
21760;BME280;11041;50.854;20.580;2023-04-28T10:55:34;99062.78;;;13.06;37.87
21760;BME280;11041;50.854;20.580;2023-04-28T11:00:46;99052.25;;;12.90;38.90
21760;BME280;11041;50.854;20.580;2023-04-28T11:06:23;99039.06;;;12.70;37.49
21760;BME280;11041;50.854;20.580;2023-04-28T11:08:56;99052.84;;;12.61;39.18
21760;BME280;11041;50.854;20.580;2023-04-28T11:11:32;99040.03;;;12.56;39.13
21760;BME280;11041;50.854;20.580;2023-04-28T11:14:38;99050.44;;;12.68;39.46
21760;BME280;11041;50.854;20.580;2023-04-28T11:17:08;99044.13;;;12.68;40.35
21760;BME280;11041;50.854;20.580;2023-04-28T11:19:41;99040.41;;;12.72;40.20
21760;BME280;11041;50.854;20.580;2023-04-28T11:22:15;99038.78;;;12.80;40.96
21760;BME280;11041;50.854;20.580;2023-04-28T11:27:30;99036.19;;;13.10;40.22
21760;BME280;11041;50.854;20.580;2023-04-28T11:29:58;99032.28;;;13.19;41.60
21760;BME280;11041;50.854;20.580;2023-04-28T11:32:30;99028.72;;;13.36;39.28
21760;BME280;11041;50.854;20.580;2023-04-28T11:34:57;99031.66;;;13.40;39.41
21760;BME280;11041;50.854;20.580;2023-04-28T11:37:24;99033.59;;;13.48;37.98
21760;BME280;11041;50.854;20.580;2023-04-28T11:39:52;99027.25;;;13.39;39.41
21760;BME280;11041;50.854;20.580;2023-04-28T11:42:19;99028.25;;;13.43;39.16
21760;BME280;11041;50.854;20.580;2023-04-28T11:44:50;99017.00;;;13.57;40.25
21760;BME280;11041;50.854;20.580;2023-04-28T11:47:38;99015.66;;;13.72;37.79
21760;BME280;11041;50.854;20.580;2023-04-28T11:50:06;99009.59;;;13.87;39.78
21760;BME280;11041;50.854;20.580;2023-04-28T11:52:33;99023.09;;;14.27;37.04
21760;BME280;11041;50.854;20.580;2023-04-28T11:54:59;99019.59;;;14.39;36.82
21760;BME280;11041;50.854;20.580;2023-04-28T11:57:27;99017.19;;;14.28;36.67
21760;BME280;11041;50.854;20.580;2023-04-28T12:00:14;99021.69;;;14.12;36.57
21760;BME280;11041;50.854;20.580;2023-04-28T12:02:46;99014.91;;;14.01;36.42
21760;BME280;11041;50.854;20.580;2023-04-28T12:05:14;99010.75;;;13.86;38.13
21760;BME280;11041;50.854;20.580;2023-04-28T12:07:44;99011.19;;;13.97;38.73
21760;BME280;11041;50.854;20.580;2023-04-28T12:10:13;99003.63;;;14.15;38.16
21760;BME280;11041;50.854;20.580;2023-04-28T12:12:44;99006.22;;;14.20;37.36
21760;BME280;11041;50.854;20.580;2023-04-28T12:15:10;98999.03;;;14.19;37.94
21760;BME280;11041;50.854;20.580;2023-04-28T12:17:39;99001.47;;;14.20;36.38
21760;BME280;11041;50.854;20.580;2023-04-28T12:20:10;98998.63;;;14.08;37.69
21760;BME280;11041;50.854;20.580;2023-04-28T12:22:49;98994.84;;;13.83;39.26
21760;BME280;11041;50.854;20.580;2023-04-28T12:25:18;98992.09;;;13.74;40.14
21760;BME280;11041;50.854;20.580;2023-04-28T12:28:06;98996.81;;;13.74;38.96
21760;BME280;11041;50.854;20.580;2023-04-28T12:30:37;98990.81;;;13.72;39.78
21760;BME280;11041;50.854;20.580;2023-04-28T12:33:26;98978.28;;;13.74;38.83
21760;BME280;11041;50.854;20.580;2023-04-28T12:35:56;98974.78;;;13.95;38.70
21760;BME280;11041;50.854;20.580;2023-04-28T12:38:24;98974.06;;;14.06;39.03
21760;BME280;11041;50.854;20.580;2023-04-28T12:40:51;98968.31;;;14.20;39.48
21760;BME280;11041;50.854;20.580;2023-04-28T12:43:18;98960.13;;;14.33;37.86
21760;BME280;11041;50.854;20.580;2023-04-28T12:45:46;98948.22;;;14.11;36.97
21760;BME280;11041;50.854;20.580;2023-04-28T12:48:12;98952.13;;;14.10;37.02
21760;BME280;11041;50.854;20.580;2023-04-28T12:50:39;98949.84;;;14.12;35.37
21760;BME280;11041;50.854;20.580;2023-04-28T12:53:06;98942.56;;;14.07;35.28
21760;BME280;11041;50.854;20.580;2023-04-28T12:55:33;98947.16;;;13.95;35.74
21760;BME280;11041;50.854;20.580;2023-04-28T12:57:59;98933.34;;;13.95;36.26
21760;BME280;11041;50.854;20.580;2023-04-28T13:00:26;98935.47;;;13.98;37.80
21760;BME280;11041;50.854;20.580;2023-04-28T13:02:52;98939.53;;;13.92;38.15
21760;BME280;11041;50.854;20.580;2023-04-28T13:05:19;98937.59;;;13.92;36.71
21760;BME280;11041;50.854;20.580;2023-04-28T13:07:46;98935.28;;;13.64;35.60
21760;BME280;11041;50.854;20.580;2023-04-28T13:10:14;98915.84;;;13.52;36.59
21760;BME280;11041;50.854;20.580;2023-04-28T13:12:41;98919.97;;;14.05;38.00
21760;BME280;11041;50.854;20.580;2023-04-28T13:15:09;98921.97;;;14.47;37.19
21760;BME280;11041;50.854;20.580;2023-04-28T13:17:36;98927.84;;;14.87;36.65